createdAt,value
2022-08-17T00:00:43.601Z,99965.94
2022-08-17T00:03:13.657Z,99956.34
2022-08-17T00:05:47.998Z,99953.94
2022-08-17T00:08:19.692Z,99947.88
2022-08-17T00:10:49.364Z,99956.97
2022-08-17T00:13:24.706Z,99966.09
2022-08-17T00:15:55.671Z,99970.69
2022-08-17T00:19:06.103Z,99965.75
2022-08-17T00:21:15.529Z,99980.31
2022-08-17T00:23:52.221Z,99965.41
2022-08-17T00:26:35.824Z,99971.88
2022-08-17T00:29:10.673Z,99970.41
2022-08-17T00:31:48.707Z,99961.66
2022-08-17T00:34:17.596Z,99962.81
2022-08-17T00:36:47.449Z,99954.91
2022-08-17T00:39:16.159Z,99947.88
2022-08-17T00:41:44.697Z,99947.16
2022-08-17T00:44:13.203Z,99954.41
2022-08-17T00:46:44.382Z,99950.06
2022-08-17T00:49:15.232Z,99953.97
2022-08-17T00:51:51.350Z,99950.56
2022-08-17T00:54:24.949Z,99941.84
2022-08-17T00:57:00.281Z,99950.84
2022-08-17T00:59:34.884Z,99936.75
2022-08-17T01:02:06.269Z,99942.34
2022-08-17T01:04:35.700Z,99940.91
2022-08-17T01:07:07.033Z,99937.66
2022-08-17T01:09:35.851Z,99947.59
2022-08-17T01:12:06.614Z,99943.59
2022-08-17T01:14:38.208Z,99953.09
2022-08-17T01:17:07.749Z,99950.78
2022-08-17T01:19:40.186Z,99955.59
2022-08-17T01:22:21.754Z,99943.63
2022-08-17T01:24:53.586Z,99949.91
2022-08-17T01:27:23.122Z,99949.22
2022-08-17T01:29:57.883Z,99953.81
2022-08-17T01:32:28.050Z,99951.38
2022-08-17T01:34:56.589Z,99951.63
2022-08-17T01:37:34.458Z,99963.50
2022-08-17T01:40:13.845Z,99960.13
2022-08-17T01:42:49.862Z,99954.91
2022-08-17T01:45:23.918Z,99950.66
2022-08-17T01:47:53.703Z,99947.28
2022-08-17T01:50:26.252Z,99947.28
2022-08-17T01:53:01.062Z,99950.91
2022-08-17T01:55:33.673Z,99944.38
2022-08-17T01:58:02.342Z,99938.31
2022-08-17T02:00:59.538Z,99948.25
2022-08-17T02:03:19.454Z,99951.16
2022-08-17T02:05:49.318Z,99941.44
2022-08-17T02:08:20.694Z,99947.75
2022-08-17T02:11:11.701Z,99948.75
2022-08-17T02:13:40.784Z,99934.69
2022-08-17T02:16:09.543Z,99943.66
2022-08-17T02:18:37.977Z,99948.34
2022-08-17T02:21:07.517Z,99950.41
2022-08-17T02:23:42.762Z,99957.81
2022-08-17T02:26:11.995Z,99955.50
2022-08-17T02:28:54.835Z,99945.94
2022-08-17T02:31:23.268Z,99956.59
2022-08-17T02:34:00.389Z,99955.03
2022-08-17T02:36:35.117Z,99968.59
2022-08-17T02:39:09.238Z,99968.81
2022-08-17T02:41:38.926Z,99969.78
2022-08-17T02:44:08.080Z,99967.09
2022-08-17T02:46:36.861Z,99968.81
2022-08-17T02:49:06.217Z,99974.16
2022-08-17T02:51:36.276Z,99967.97
2022-08-17T02:54:39.874Z,99969.97
2022-08-17T02:56:55.041Z,99972.63
2022-08-17T02:59:24.354Z,99970.75
2022-08-17T03:01:53.682Z,99967.09
2022-08-17T03:04:22.267Z,99957.19
2022-08-17T03:06:50.704Z,99962.50
2022-08-17T03:09:20.458Z,99963.34
2022-08-17T03:11:51.898Z,99958.16
2022-08-17T03:14:26.216Z,99959.25
2022-08-17T03:16:54.860Z,99960.28
2022-08-17T03:19:23.626Z,99963.94
2022-08-17T03:21:54.826Z,99967.44
2022-08-17T03:24:28.838Z,99962.22
2022-08-17T03:26:57.607Z,99962.34
2022-08-17T03:29:26.074Z,99969.25
2022-08-17T03:31:54.624Z,99967.44
2022-08-17T03:34:23.169Z,99959.44
2022-08-17T03:36:51.622Z,99961.28
2022-08-17T03:39:19.978Z,99956.78
2022-08-17T03:41:49.761Z,99957.72
2022-08-17T03:44:18.132Z,99956.88
2022-08-17T03:47:04.108Z,99951.56
2022-08-17T03:49:50.004Z,99953.50
2022-08-17T03:52:35.689Z,99962.44
2022-08-17T03:55:22.067Z,99957.13
2022-08-17T03:58:05.787Z,99956.19
2022-08-17T04:00:36.318Z,99951.56
2022-08-17T04:03:09.081Z,99949.63
2022-08-17T04:05:37.601Z,99946.97
2022-08-17T04:08:07.146Z,99946.00
2022-08-17T04:10:41.356Z,99946.88
2022-08-17T04:13:14.961Z,99952.19
2022-08-17T04:15:52.640Z,99942.41
2022-08-17T04:18:21.115Z,99942.28
2022-08-17T04:20:49.486Z,99936.84
2022-08-17T04:23:19.977Z,99942.19
2022-08-17T04:25:51.610Z,99943.88
2022-08-17T04:28:22.178Z,99958.78
2022-08-17T04:30:50.912Z,99978.16
2022-08-17T04:33:24.062Z,99995.00
2022-08-17T04:35:55.880Z,100011.22
2022-08-17T04:38:26.821Z,100049.00
2022-08-17T04:41:14.166Z,100083.56
2022-08-17T04:43:46.265Z,100035.78
2022-08-17T04:46:17.865Z,100026.81
2022-08-17T04:48:48.718Z,100022.00
2022-08-17T04:51:22.897Z,100026.63
2022-08-17T04:53:55.297Z,100027.69
2022-08-17T04:56:26.258Z,100041.16
2022-08-17T04:58:59.647Z,100038.63
2022-08-17T05:01:31.568Z,100030.88
2022-08-17T05:04:32.922Z,100044.47
2022-08-17T05:06:55.090Z,100029.59
2022-08-17T05:09:23.544Z,100021.94
2022-08-17T05:11:52.820Z,100038.91
2022-08-17T05:14:32.360Z,100029.47
2022-08-17T05:17:07.066Z,100020.00
2022-08-17T05:19:37.862Z,100015.88
2022-08-17T05:22:07.155Z,100010.94
2022-08-17T05:24:38.364Z,100020.16
2022-08-17T05:27:07.692Z,100016.16
2022-08-17T05:29:37.517Z,100022.66
2022-08-17T05:32:38.674Z,100009.81
2022-08-17T05:35:00.402Z,100011.25
2022-08-17T05:37:29.097Z,100025.31
2022-08-17T05:39:58.907Z,100020.72
2022-08-17T05:42:27.303Z,100030.16
2022-08-17T05:44:59.975Z,100031.84
2022-08-17T05:47:29.553Z,100037.19
2022-08-17T05:49:59.045Z,100039.84
2022-08-17T05:52:42.832Z,100060.88
2022-08-17T05:55:21.827Z,100053.84
2022-08-17T05:58:06.587Z,100059.78
2022-08-17T06:00:50.485Z,100060.63
2022-08-17T06:03:41.393Z,100057.22
2022-08-17T06:06:35.404Z,100055.63
2022-08-17T06:09:33.960Z,100055.69
2022-08-17T06:12:19.893Z,100056.16
2022-08-17T06:15:10.685Z,100062.00
2022-08-17T06:17:41.101Z,100045.75
2022-08-17T06:20:14.117Z,100030.19
2022-08-17T06:22:47.271Z,100036.75
2022-08-17T06:25:19.922Z,100037.94
2022-08-17T06:27:53.642Z,100045.44
2022-08-17T06:30:25.958Z,100047.84
2022-08-17T06:33:05.969Z,100025.28
2022-08-17T06:35:43.737Z,100022.81
2022-08-17T06:38:37.156Z,100020.94
2022-08-17T06:41:18.966Z,100030.31
2022-08-17T06:44:04.241Z,100035.53
2022-08-17T06:46:38.497Z,100025.69
2022-08-17T06:49:21.797Z,100030.06
2022-08-17T06:51:55.486Z,100034.16
2022-08-17T06:54:35.134Z,100032.22
2022-08-17T06:57:14.928Z,100029.53
2022-08-17T06:59:55.660Z,100057.09
2022-08-17T07:02:52.032Z,100050.59
2022-08-17T07:05:36.622Z,100066.03
2022-08-17T07:08:18.605Z,100080.56
2022-08-17T07:10:54.089Z,100075.47
2022-08-17T07:13:34.480Z,100065.88
2022-08-17T07:16:17.251Z,100062.38
2022-08-17T07:18:46.572Z,100054.25
2022-08-17T07:21:31.257Z,100061.41
2022-08-17T07:24:29.333Z,100068.44
2022-08-17T07:27:10.734Z,100066.28
2022-08-17T07:29:44.537Z,100067.75
2022-08-17T07:32:18.278Z,100066.56
2022-08-17T07:35:11.205Z,100077.97
2022-08-17T07:37:44.176Z,100084.66
2022-08-17T07:40:28.489Z,100065.38
2022-08-17T07:43:24.396Z,100064.38
2022-08-17T07:46:37.258Z,100083.56
2022-08-17T07:49:34.747Z,100084.16
2022-08-17T07:52:24.088Z,100096.31
2022-08-17T07:54:58.537Z,100091.81
2022-08-17T07:57:37.114Z,100092.91
2022-08-17T08:00:31.783Z,100079.66
2022-08-17T08:03:25.400Z,100092.31
2022-08-17T08:06:00.236Z,100085.28
2022-08-17T08:08:34.523Z,100083.09
2022-08-17T08:11:09.397Z,100077.38
2022-08-17T08:13:42.871Z,100080.69
2022-08-17T08:16:29.194Z,100084.56
2022-08-17T08:19:00.981Z,100083.72
2022-08-17T08:21:43.711Z,100068.19
2022-08-17T08:24:37.388Z,100073.03
2022-08-17T08:27:19.291Z,100084.78
2022-08-17T08:29:55.789Z,100094.00
2022-08-17T08:32:42.793Z,100093.75
2022-08-17T08:35:23.770Z,100097.41
2022-08-17T08:38:14.722Z,100104.44
2022-08-17T08:41:07.126Z,100092.06
2022-08-17T08:43:53.063Z,100091.81
2022-08-17T08:46:31.796Z,100111.22
2022-08-17T08:50:08.979Z,100098.84
2022-08-17T08:53:08.322Z,100096.41
2022-08-17T08:55:52.977Z,100107.84
2022-08-17T08:58:41.930Z,100114.63
2022-08-17T09:01:26.825Z,100132.13
2022-08-17T09:04:44.955Z,100135.25
2022-08-17T09:07:36.718Z,100128.91
2022-08-17T09:10:10.272Z,100128.31
2022-08-17T09:12:51.721Z,100126.44
2022-08-17T09:15:27.640Z,100135.34
2022-08-17T09:18:59.142Z,100126.75
2022-08-17T09:20:58.375Z,100117.59
2022-08-17T09:23:34.086Z,100126.88
2022-08-17T09:26:11.630Z,100112.16
2022-08-17T09:28:44.622Z,100121.53
2022-08-17T09:31:18.993Z,100124.13
2022-08-17T09:33:51.255Z,100140.56
2022-08-17T09:36:29.245Z,100137.78
2022-08-17T09:39:02.553Z,100136.41
2022-08-17T09:41:49.238Z,100145.19
2022-08-17T09:44:32.071Z,100175.97
2022-08-17T09:47:12.050Z,100169.97
2022-08-17T09:49:48.192Z,100158.59
2022-08-17T09:52:23.437Z,100157.31
2022-08-17T09:54:55.446Z,100154.06
2022-08-17T09:57:44.996Z,100137.09
2022-08-17T10:00:23.706Z,100126.66
2022-08-17T10:03:28.272Z,100122.22
2022-08-17T10:06:08.800Z,100136.50
2022-08-17T10:08:45.515Z,100144.69
2022-08-17T10:11:48.404Z,100151.09
2022-08-17T10:14:37.305Z,100159.97
2022-08-17T10:17:22.232Z,100174.13
2022-08-17T10:20:01.094Z,100176.69
2022-08-17T10:22:56.464Z,100178.09
2022-08-17T10:25:54.678Z,100171.09
2022-08-17T10:28:30.946Z,100175.16
2022-08-17T10:31:33.874Z,100178.78
2022-08-17T10:34:38.707Z,100185.22
2022-08-17T10:37:37.455Z,100190.00
2022-08-17T10:40:24.588Z,100197.19
2022-08-17T10:43:02.457Z,100194.50
2022-08-17T10:45:44.981Z,100198.47
2022-08-17T10:48:32.945Z,100199.63
2022-08-17T10:51:08.785Z,100197.41
2022-08-17T10:54:01.557Z,100199.66
2022-08-17T10:56:51.507Z,100191.22
2022-08-17T10:59:52.809Z,100193.91
2022-08-17T11:02:28.155Z,100174.88
2022-08-17T11:05:23.764Z,100172.69
2022-08-17T11:08:20.565Z,100169.03
2022-08-17T11:11:14.574Z,100164.97
2022-08-17T11:13:53.654Z,100156.31
2022-08-17T11:16:47.920Z,100169.97
2022-08-17T11:19:58.505Z,100173.50
2022-08-17T11:23:41.622Z,100182.09
2022-08-17T11:26:27.132Z,100179.25
2022-08-17T11:29:01.350Z,100181.94
2022-08-17T11:31:38.713Z,100183.00
2022-08-17T11:34:19.743Z,100180.78
2022-08-17T11:37:42.775Z,100169.91
2022-08-17T11:40:56.126Z,100160.19
2022-08-17T11:44:15.359Z,100163.84
2022-08-17T11:47:19.224Z,100180.53
2022-08-17T11:50:27.731Z,100170.94
2022-08-17T11:52:57.001Z,100184.69
2022-08-17T11:56:04.750Z,100174.03
2022-08-17T11:58:42.041Z,100168.22
2022-08-17T12:01:16.244Z,100183.56
2022-08-17T12:03:55.412Z,100178.25
2022-08-17T12:06:46.628Z,100181.84
2022-08-17T12:09:20.826Z,100170.22
2022-08-17T12:12:13.431Z,100165.41
2022-08-17T12:15:11.079Z,100181.13
2022-08-17T12:17:42.881Z,100173.00
2022-08-17T12:20:24.046Z,100179.88
2022-08-17T12:23:04.397Z,100179.34
2022-08-17T12:25:40.313Z,100184.16
2022-08-17T12:28:23.458Z,100182.69
2022-08-17T12:30:54.174Z,100172.78
2022-08-17T12:33:28.333Z,100172.13
2022-08-17T12:36:03.990Z,100165.28
2022-08-17T12:38:34.780Z,100172.38
2022-08-17T12:41:21.628Z,100163.28
2022-08-17T12:44:00.413Z,100164.50
2022-08-17T12:46:33.579Z,100166.34
2022-08-17T12:49:29.527Z,100154.81
2022-08-17T12:52:14.177Z,100155.78
2022-08-17T12:54:52.359Z,100136.72
2022-08-17T12:57:24.146Z,100131.75
2022-08-17T12:59:59.785Z,100144.88
2022-08-17T13:02:42.544Z,100138.06
2022-08-17T13:05:25.020Z,100128.72
2022-08-17T13:07:54.542Z,100143.63
2022-08-17T13:10:32.478Z,100138.66
2022-08-17T13:13:05.393Z,100119.00
2022-08-17T13:15:44.905Z,100117.19
2022-08-17T13:18:39.549Z,100109.03
2022-08-17T13:21:26.618Z,100096.88
2022-08-17T13:24:05.667Z,100102.59
2022-08-17T13:26:38.207Z,100100.44
2022-08-17T13:29:18.629Z,100092.31
2022-08-17T13:31:52.675Z,100079.03
2022-08-17T13:35:12.622Z,100080.66
2022-08-17T13:37:34.059Z,100080.78
2022-08-17T13:40:27.890Z,100080.72
2022-08-17T13:42:57.681Z,100081.34
2022-08-17T13:45:39.651Z,100087.69
2022-08-17T13:48:13.870Z,100087.53
2022-08-17T13:50:49.208Z,100078.34
2022-08-17T13:53:24.737Z,100074.81
2022-08-17T13:55:57.040Z,100070.53
2022-08-17T13:58:31.821Z,100068.22
2022-08-17T14:01:16.431Z,100073.25
2022-08-17T14:03:44.850Z,100065.94
2022-08-17T14:06:22.111Z,100060.31
2022-08-17T14:09:10.222Z,100072.06
2022-08-17T14:11:39.622Z,100065.81
2022-08-17T14:14:08.073Z,100061.41
2022-08-17T14:16:40.285Z,100057.19
2022-08-17T14:19:10.173Z,100051.72
2022-08-17T14:21:41.046Z,100053.19
2022-08-17T14:24:17.081Z,100046.94
2022-08-17T14:26:45.799Z,100038.47
2022-08-17T14:29:15.447Z,100038.91
2022-08-17T14:31:53.251Z,100041.03
2022-08-17T14:34:24.079Z,100044.78
2022-08-17T14:36:54.022Z,100050.09
2022-08-17T14:39:22.508Z,100038.97
2022-08-17T14:41:52.995Z,100033.09
2022-08-17T14:44:21.473Z,100036.91
2022-08-17T14:46:50.470Z,100037.69
2022-08-17T14:49:20.673Z,100038.06
2022-08-17T14:51:49.489Z,100028.41
2022-08-17T14:54:34.116Z,100025.84
2022-08-17T14:57:22.495Z,100037.66
2022-08-17T14:59:54.949Z,100023.34
2022-08-17T15:02:29.824Z,100018.97
2022-08-17T15:05:03.833Z,100021.88
2022-08-17T15:07:32.496Z,100017.06
2022-08-17T15:10:02.803Z,100025.84
2022-08-17T15:12:34.029Z,100021.31
2022-08-17T15:15:04.760Z,100017.16
2022-08-17T15:17:44.617Z,100014.25
2022-08-17T15:20:18.049Z,100015.09
2022-08-17T15:22:49.636Z,100018.84
2022-08-17T15:25:22.099Z,100018.41
2022-08-17T15:27:50.988Z,100022.63
2022-08-17T15:30:20.684Z,100018.38
2022-08-17T15:32:55.160Z,100025.34
2022-08-17T15:35:27.908Z,100019.84
2022-08-17T15:38:06.195Z,100013.75
2022-08-17T15:40:43.800Z,100016.69
2022-08-17T15:43:16.870Z,100011.28
2022-08-17T15:45:58.610Z,100018.44
2022-08-17T15:48:41.338Z,100014.66
2022-08-17T15:51:12.878Z,100000.41
2022-08-17T15:53:43.153Z,99999.56
2022-08-17T15:56:13.645Z,99995.78
2022-08-17T15:58:44.515Z,99992.84
2022-08-17T16:01:18.715Z,100004.94
2022-08-17T16:04:06.637Z,100004.63
2022-08-17T16:06:50.497Z,100005.41
2022-08-17T16:09:18.977Z,100005.44
2022-08-17T16:11:55.096Z,100002.09
2022-08-17T16:14:24.101Z,100012.53
2022-08-17T16:16:52.777Z,100013.25
2022-08-17T16:19:21.220Z,100007.44
2022-08-17T16:21:49.592Z,100007.34
2022-08-17T16:24:18.001Z,100004.50
2022-08-17T16:26:46.374Z,100012.09
2022-08-17T16:29:16.325Z,100014.50
2022-08-17T16:31:44.738Z,100019.03
2022-08-17T16:34:17.114Z,100012.50
2022-08-17T16:36:55.265Z,100010.03
2022-08-17T16:39:27.348Z,100011.63
2022-08-17T16:41:57.269Z,100018.94
2022-08-17T16:44:28.954Z,100012.75
2022-08-17T16:46:58.095Z,99998.25
2022-08-17T16:49:36.941Z,99997.22
2022-08-17T16:52:11.265Z,100003.34
2022-08-17T16:54:43.312Z,99997.81
2022-08-17T16:57:13.204Z,99994.31
2022-08-17T16:59:47.770Z,99989.25
2022-08-17T17:02:18.124Z,99989.31
2022-08-17T17:04:53.929Z,99985.78
2022-08-17T17:07:52.122Z,99987.50
2022-08-17T17:10:25.262Z,99972.78
2022-08-17T17:13:03.498Z,99983.09
2022-08-17T17:15:54.283Z,99984.97
2022-08-17T17:18:32.637Z,99991.56
2022-08-17T17:21:02.171Z,99985.66
2022-08-17T17:23:46.529Z,99991.06
2022-08-17T17:26:48.329Z,99990.41
2022-08-17T17:29:47.482Z,99983.50
2022-08-17T17:32:25.342Z,99991.25
2022-08-17T17:35:02.595Z,99989.06
2022-08-17T17:37:35.824Z,99986.91
2022-08-17T17:40:13.608Z,99978.47
2022-08-17T17:42:44.724Z,99972.56
2022-08-17T17:45:21.812Z,99969.53
2022-08-17T17:47:51.795Z,99962.81
2022-08-17T17:50:28.984Z,99968.53
2022-08-17T17:53:04.065Z,99975.94
2022-08-17T17:55:48.064Z,99970.22
2022-08-17T17:58:36.946Z,99970.22
2022-08-17T18:01:42.010Z,99976.25
2022-08-17T18:04:23.526Z,99969.88
2022-08-17T18:07:13.234Z,99974.56
2022-08-17T18:10:02.002Z,99969.84
2022-08-17T18:12:41.620Z,99968.66
2022-08-17T18:15:25.677Z,99961.25
2022-08-17T18:18:37.768Z,99955.00
2022-08-17T18:21:16.803Z,99959.22
2022-08-17T18:23:59.935Z,99965.47
2022-08-17T18:26:46.520Z,99965.44
2022-08-17T18:29:38.016Z,99976.16
2022-08-17T18:32:35.638Z,99978.88
2022-08-17T18:35:30.394Z,99982.50
2022-08-17T18:38:22.828Z,99985.53
2022-08-17T18:41:06.192Z,99978.09
2022-08-17T18:43:52.633Z,99982.28
2022-08-17T18:46:35.370Z,99987.81
2022-08-17T18:49:07.720Z,99985.75
2022-08-17T18:51:42.503Z,99984.69
2022-08-17T18:54:23.922Z,99993.72
2022-08-17T18:56:57.017Z,100001.59
2022-08-17T18:59:42.274Z,100010.63
2022-08-17T19:02:44.116Z,100015.63
2022-08-17T19:05:29.125Z,100019.97
2022-08-17T19:08:20.620Z,100028.81
2022-08-17T19:10:55.130Z,100030.81
2022-08-17T19:13:32.802Z,100030.44
2022-08-17T19:16:12.325Z,100027.38
2022-08-17T19:18:49.676Z,100028.97
2022-08-17T19:21:24.640Z,100027.88
2022-08-17T19:24:01.467Z,100031.06
2022-08-17T19:26:50.531Z,100034.50
2022-08-17T19:29:27.630Z,100039.34
2022-08-17T19:31:58.747Z,100038.81
2022-08-17T19:34:34.375Z,100047.19
2022-08-17T19:37:10.653Z,100045.13
2022-08-17T19:39:51.035Z,100049.09
2022-08-17T19:42:33.931Z,100039.25
2022-08-17T19:45:11.702Z,100037.34
2022-08-17T19:47:55.432Z,100031.66
2022-08-17T19:50:38.447Z,100030.59
2022-08-17T19:53:21.273Z,100023.13
2022-08-17T19:56:00.937Z,100031.50
2022-08-17T19:58:48.200Z,100032.09
2022-08-17T20:01:34.973Z,100047.50
2022-08-17T20:04:14.165Z,100045.44
2022-08-17T20:06:49.256Z,100047.41
2022-08-17T20:09:21.859Z,100048.00
2022-08-17T20:11:56.297Z,100045.78
2022-08-17T20:14:40.089Z,100048.22
2022-08-17T20:17:23.420Z,100037.06
2022-08-17T20:20:00.072Z,100032.28
2022-08-17T20:22:36.916Z,100042.59
2022-08-17T20:25:32.633Z,100042.44
2022-08-17T20:28:15.687Z,100045.88
2022-08-17T20:30:46.113Z,100038.53
2022-08-17T20:33:28.430Z,100035.75
2022-08-17T20:36:19.231Z,100036.34
2022-08-17T20:38:50.872Z,100032.94
2022-08-17T20:41:23.186Z,100026.16
2022-08-17T20:44:07.108Z,100024.75
2022-08-17T20:46:57.934Z,100031.41
2022-08-17T20:49:40.117Z,100038.03
2022-08-17T20:52:13.397Z,100022.50
2022-08-17T20:54:49.948Z,100024.81
2022-08-17T20:57:48.990Z,100027.31
2022-08-17T21:00:47.266Z,100031.25
2022-08-17T21:03:52.738Z,100040.56
2022-08-17T21:06:25.316Z,100036.19
2022-08-17T21:09:19.641Z,100041.69
2022-08-17T21:12:03.949Z,100028.72
2022-08-17T21:14:57.363Z,100032.66
2022-08-17T21:17:48.125Z,100050.41
2022-08-17T21:20:32.969Z,100053.66
2022-08-17T21:23:25.824Z,100050.66
2022-08-17T21:26:13.822Z,100061.44
2022-08-17T21:29:32.593Z,100056.19
2022-08-17T21:32:24.199Z,100066.56
2022-08-17T21:35:28.896Z,100067.66
2022-08-17T21:38:04.985Z,100072.66
2022-08-17T21:40:35.460Z,100079.28
2022-08-17T21:43:35.219Z,100085.00
2022-08-17T21:46:08.295Z,100085.44
2022-08-17T21:48:45.378Z,100083.84
2022-08-17T21:51:23.444Z,100079.50
2022-08-17T21:53:54.289Z,100081.31
2022-08-17T21:56:26.562Z,100092.88
2022-08-17T21:59:00.561Z,100107.94
2022-08-17T22:01:35.322Z,100103.56
2022-08-17T22:04:08.629Z,100109.44
2022-08-17T22:06:42.184Z,100106.03
2022-08-17T22:09:25.694Z,100108.84
2022-08-17T22:12:07.218Z,100099.25
2022-08-17T22:14:52.485Z,100089.66
2022-08-17T22:17:26.075Z,100102.28
2022-08-17T22:19:57.816Z,100113.13
2022-08-17T22:22:57.077Z,100109.72
2022-08-17T22:25:26.706Z,100112.53
2022-08-17T22:28:00.106Z,100111.81
2022-08-17T22:30:36.584Z,100109.25
2022-08-17T22:33:39.647Z,100121.69
2022-08-17T22:36:29.448Z,100127.47
2022-08-17T22:39:03.409Z,100132.44
2022-08-17T22:41:43.833Z,100134.72
2022-08-17T22:44:31.618Z,100133.63
2022-08-17T22:47:11.426Z,100135.34
2022-08-17T22:49:54.092Z,100143.50
2022-08-17T22:52:34.429Z,100143.72
2022-08-17T22:55:31.878Z,100150.75
2022-08-17T22:58:19.004Z,100151.63
2022-08-17T23:00:50.656Z,100147.38
2022-08-17T23:03:22.895Z,100149.34
2022-08-17T23:06:07.498Z,100141.56
2022-08-17T23:08:43.645Z,100143.50
2022-08-17T23:11:15.033Z,100151.78
2022-08-17T23:13:44.418Z,100150.38
2022-08-17T23:16:13.305Z,100146.97
2022-08-17T23:18:41.721Z,100152.44
2022-08-17T23:21:10.355Z,100152.56
2022-08-17T23:23:44.629Z,100165.47
2022-08-17T23:26:14.376Z,100176.66
2022-08-17T23:28:43.766Z,100187.16
2022-08-17T23:31:13.777Z,100197.63
2022-08-17T23:33:42.529Z,100204.47
2022-08-17T23:36:15.362Z,100210.16
2022-08-17T23:38:46.788Z,100215.16
2022-08-17T23:41:21.404Z,100209.31
2022-08-17T23:43:53.671Z,100207.97
2022-08-17T23:46:25.081Z,100209.19
2022-08-17T23:48:54.202Z,100211.97
2022-08-17T23:51:28.484Z,100205.66
2022-08-17T23:54:07.698Z,100215.22
2022-08-17T23:56:44.502Z,100216.81
2022-08-17T23:59:13.526Z,100222.94
